createdAt,value
2018-07-25T00:00:31.848Z,101345.58
2018-07-25T00:03:36.065Z,101347.82
2018-07-25T00:06:40.265Z,101348.97
2018-07-25T00:09:44.497Z,101348.70
2018-07-25T00:12:48.708Z,101346.20
2018-07-25T00:15:52.920Z,101349.83
2018-07-25T00:18:57.104Z,101347.05
2018-07-25T00:22:01.330Z,101350.95
2018-07-25T00:25:05.585Z,101354.25
2018-07-25T00:28:09.822Z,101350.69
2018-07-25T00:31:14.012Z,101357.30
2018-07-25T00:34:18.244Z,101347.93
2018-07-25T00:37:22.449Z,101351.26
2018-07-25T00:40:26.687Z,101353.75
2018-07-25T00:43:30.914Z,101357.91
2018-07-25T00:46:35.193Z,101354.90
2018-07-25T00:49:39.394Z,101355.19
2018-07-25T00:52:43.609Z,101350.48
2018-07-25T00:55:47.821Z,101351.59
2018-07-25T00:58:52.050Z,101353.27
2018-07-25T01:01:56.280Z,101349.11
2018-07-25T01:05:00.514Z,101346.36
2018-07-25T01:08:04.720Z,101354.39
2018-07-25T01:11:09.002Z,101353.26
2018-07-25T01:14:13.212Z,101357.97
2018-07-25T01:17:17.485Z,101357.14
2018-07-25T01:20:21.681Z,101361.33
2018-07-25T01:23:25.919Z,101358.27
2018-07-25T01:26:30.118Z,101363.22
2018-07-25T01:29:34.120Z,101357.42
2018-07-25T01:32:38.356Z,101363.51
2018-07-25T01:35:42.629Z,101360.19
2018-07-25T01:38:46.824Z,101358.83
2018-07-25T01:41:51.060Z,101360.47
2018-07-25T01:44:55.260Z,101356.88
2018-07-25T01:47:59.497Z,101358.82
2018-07-25T01:51:03.740Z,101351.35
2018-07-25T01:54:07.963Z,101359.37
2018-07-25T01:57:12.219Z,101361.58
2018-07-25T02:00:16.473Z,101358.56
2018-07-25T02:03:20.705Z,101366.02
2018-07-25T02:06:25.717Z,101372.06
2018-07-25T02:09:29.940Z,101376.48
2018-07-25T02:12:34.264Z,101379.53
2018-07-25T02:15:38.452Z,101379.23
2018-07-25T02:18:42.689Z,101379.25
2018-07-25T02:21:46.892Z,101381.45
2018-07-25T02:24:51.145Z,101377.85
2018-07-25T02:27:55.397Z,101381.73
2018-07-25T02:31:00.047Z,101380.89
2018-07-25T02:34:09.637Z,101380.06
2018-07-25T02:37:13.865Z,101385.02
2018-07-25T02:40:18.220Z,101375.09
2018-07-25T02:43:22.443Z,101383.35
2018-07-25T02:46:26.678Z,101380.33
2018-07-25T02:49:30.936Z,101385.28
2018-07-25T02:52:35.165Z,101380.58
2018-07-25T02:55:39.394Z,101390.21
2018-07-25T02:58:43.618Z,101393.52
2018-07-25T03:01:47.853Z,101392.92
2018-07-25T03:04:52.077Z,101395.95
2018-07-25T03:07:56.278Z,101393.17
2018-07-25T03:11:00.510Z,101397.86
2018-07-25T03:14:04.742Z,101398.67
2018-07-25T03:17:09.139Z,101397.02
2018-07-25T03:20:13.425Z,101395.08
2018-07-25T03:23:17.614Z,101392.86
2018-07-25T03:26:21.843Z,101397.81
2018-07-25T03:29:26.049Z,101405.52
2018-07-25T03:32:30.245Z,101389.23
2018-07-25T03:35:34.445Z,101390.61
2018-07-25T03:38:38.668Z,101394.22
2018-07-25T03:41:42.888Z,101397.24
2018-07-25T03:44:47.128Z,101400.00
2018-07-25T03:47:51.344Z,101396.94
2018-07-25T03:50:55.597Z,101402.73
2018-07-25T03:53:59.837Z,101395.56
2018-07-25T03:57:04.114Z,101398.59
2018-07-25T04:00:08.313Z,101398.59
2018-07-25T04:03:12.542Z,101404.38
2018-07-25T04:06:16.767Z,101403.00
2018-07-25T04:09:20.977Z,101405.22
2018-07-25T04:12:25.356Z,101409.36
2018-07-25T04:15:29.349Z,101409.08
2018-07-25T04:18:33.549Z,101408.55
2018-07-25T04:21:37.746Z,101407.49
2018-07-25T04:24:41.986Z,101408.33
2018-07-25T04:27:46.978Z,101412.19
2018-07-25T04:30:51.216Z,101411.68
2018-07-25T04:33:55.427Z,101409.48
2018-07-25T04:36:59.634Z,101409.23
2018-07-25T04:40:03.873Z,101414.27
2018-07-25T04:43:08.096Z,101413.98
2018-07-25T04:46:12.368Z,101412.89
2018-07-25T04:49:16.553Z,101416.52
2018-07-25T04:52:20.772Z,101413.73
2018-07-25T04:55:24.993Z,101413.75
2018-07-25T04:58:29.881Z,101421.23
2018-07-25T05:01:34.121Z,101424.84
2018-07-25T05:04:38.329Z,101415.98
2018-07-25T05:07:42.557Z,101417.41
2018-07-25T05:10:46.785Z,101417.66
2018-07-25T05:13:51.004Z,101425.98
2018-07-25T05:16:55.232Z,101423.50
2018-07-25T05:19:59.457Z,101429.28
2018-07-25T05:23:03.666Z,101424.03
2018-07-25T05:26:07.842Z,101432.03
2018-07-25T05:29:12.070Z,101432.00
2018-07-25T05:32:16.281Z,101426.14
2018-07-25T05:35:20.488Z,101424.48
2018-07-25T05:38:24.715Z,101425.25
2018-07-25T05:41:28.961Z,101421.88
2018-07-25T05:44:33.196Z,101426.80
2018-07-25T05:47:37.448Z,101432.27
2018-07-25T05:50:41.717Z,101431.37
2018-07-25T05:53:46.086Z,101430.77
2018-07-25T05:56:50.322Z,101435.09
2018-07-25T05:59:54.504Z,101436.94
2018-07-25T06:02:58.721Z,101441.45
2018-07-25T06:06:02.985Z,101446.87
2018-07-25T06:09:09.427Z,101446.20
2018-07-25T06:12:13.642Z,101452.65
2018-07-25T06:15:17.633Z,101451.63
2018-07-25T06:18:21.828Z,101455.34
2018-07-25T06:21:26.029Z,101453.55
2018-07-25T06:24:30.220Z,101456.77
2018-07-25T06:27:34.538Z,101452.18
2018-07-25T06:30:38.753Z,101450.06
2018-07-25T06:33:42.959Z,101458.67
2018-07-25T06:36:47.150Z,101458.21
2018-07-25T06:39:51.385Z,101462.49
2018-07-25T06:42:55.656Z,101464.23
2018-07-25T06:45:59.852Z,101465.20
2018-07-25T06:49:04.312Z,101468.94
2018-07-25T06:52:08.531Z,101479.66
2018-07-25T06:55:12.760Z,101480.14
2018-07-25T06:58:16.949Z,101482.55
2018-07-25T07:01:21.140Z,101477.47
2018-07-25T07:04:25.369Z,101475.97
2018-07-25T07:07:29.568Z,101478.64
2018-07-25T07:10:33.819Z,101484.29
2018-07-25T07:13:38.035Z,101487.17
2018-07-25T07:16:42.256Z,101486.41
2018-07-25T07:19:46.468Z,101485.85
2018-07-25T07:22:50.697Z,101487.55
2018-07-25T07:25:54.978Z,101492.80
2018-07-25T07:28:59.129Z,101486.92
2018-07-25T07:32:03.340Z,101494.94
2018-07-25T07:35:07.544Z,101489.08
2018-07-25T07:38:11.764Z,101484.95
2018-07-25T07:41:15.965Z,101484.38
2018-07-25T07:44:20.176Z,101486.31
2018-07-25T07:47:24.388Z,101485.76
2018-07-25T07:50:28.580Z,101490.19
2018-07-25T07:53:32.792Z,101494.02
2018-07-25T07:56:36.987Z,101498.44
2018-07-25T07:59:41.181Z,101493.11
2018-07-25T08:02:45.384Z,101491.69
2018-07-25T08:05:49.609Z,101489.67
2018-07-25T08:08:53.809Z,101500.02
2018-07-25T08:11:58.053Z,101497.09
2018-07-25T08:15:02.253Z,101495.41
2018-07-25T08:18:06.459Z,101489.36
2018-07-25T08:21:10.769Z,101491.27
2018-07-25T08:24:14.952Z,101495.84
2018-07-25T08:27:19.210Z,101488.49
2018-07-25T08:30:23.197Z,101487.59
2018-07-25T08:33:27.421Z,101486.45
2018-07-25T08:36:31.632Z,101483.00
2018-07-25T08:39:35.915Z,101486.70
2018-07-25T08:42:42.258Z,101485.99
2018-07-25T08:45:51.458Z,101483.90
2018-07-25T08:48:56.127Z,101484.97
2018-07-25T08:52:00.925Z,101480.56
2018-07-25T08:55:05.427Z,101479.05
2018-07-25T08:58:10.934Z,101480.03
2018-07-25T09:01:18.555Z,101477.09
2018-07-25T09:04:24.518Z,101478.14
2018-07-25T09:07:29.005Z,101474.89
2018-07-25T09:10:33.212Z,101483.66
2018-07-25T09:13:37.449Z,101482.83
2018-07-25T09:16:41.719Z,101482.17
2018-07-25T09:19:46.089Z,101478.48
2018-07-25T09:22:50.309Z,101482.02
2018-07-25T09:25:54.551Z,101483.86
2018-07-25T09:28:58.754Z,101479.13
2018-07-25T09:32:02.992Z,101479.84
2018-07-25T09:35:07.236Z,101475.31
2018-07-25T09:38:11.490Z,101477.09
2018-07-25T09:41:15.722Z,101479.62
2018-07-25T09:44:19.940Z,101478.38
2018-07-25T09:47:24.199Z,101478.38
2018-07-25T09:50:28.391Z,101471.75
2018-07-25T09:53:32.647Z,101470.71
2018-07-25T09:56:36.869Z,101473.07
2018-07-25T09:59:40.871Z,101478.88
2018-07-25T10:02:45.129Z,101470.80
2018-07-25T10:05:49.305Z,101473.30
2018-07-25T10:08:53.537Z,101470.25
2018-07-25T10:11:57.764Z,101479.28
2018-07-25T10:15:01.999Z,101478.47
2018-07-25T10:18:06.384Z,101480.14
2018-07-25T10:21:10.597Z,101479.10
2018-07-25T10:24:14.846Z,101473.42
2018-07-25T10:27:19.112Z,101475.97
2018-07-25T10:30:23.469Z,101467.31
2018-07-25T10:33:27.741Z,101466.12
2018-07-25T10:36:31.960Z,101467.55
2018-07-25T10:39:36.196Z,101457.81
2018-07-25T10:42:40.457Z,101461.20
2018-07-25T10:45:44.624Z,101466.60
2018-07-25T10:48:48.873Z,101456.08
2018-07-25T10:51:53.074Z,101454.77
2018-07-25T10:54:57.296Z,101457.09
2018-07-25T10:58:01.542Z,101448.20
2018-07-25T11:01:05.832Z,101450.42
2018-07-25T11:04:10.049Z,101451.02
2018-07-25T11:07:14.277Z,101456.08
2018-07-25T11:10:18.499Z,101455.83
2018-07-25T11:13:22.697Z,101449.15
2018-07-25T11:16:27.002Z,101452.44
2018-07-25T11:19:31.196Z,101449.49
2018-07-25T11:22:35.449Z,101444.91
2018-07-25T11:25:39.665Z,101451.25
2018-07-25T11:28:43.917Z,101453.84
2018-07-25T11:31:48.153Z,101449.62
2018-07-25T11:34:52.373Z,101453.01
2018-07-25T11:37:56.625Z,101451.82
2018-07-25T11:41:01.236Z,101445.26
2018-07-25T11:44:05.448Z,101443.35
2018-07-25T11:47:09.662Z,101442.83
2018-07-25T11:50:13.957Z,101438.62
2018-07-25T11:53:18.162Z,101435.15
2018-07-25T11:56:22.401Z,101436.32
2018-07-25T11:59:26.632Z,101428.38
2018-07-25T12:02:30.828Z,101429.18
2018-07-25T12:05:35.041Z,101423.86
2018-07-25T12:08:39.277Z,101425.72
2018-07-25T12:11:46.500Z,101421.47
2018-07-25T12:14:50.742Z,101419.70
2018-07-25T12:17:54.940Z,101417.10
2018-07-25T12:20:59.188Z,101408.00
2018-07-25T12:24:03.398Z,101399.19
2018-07-25T12:27:07.627Z,101405.06
2018-07-25T12:30:11.860Z,101399.63
2018-07-25T12:33:15.957Z,101402.87
2018-07-25T12:36:20.373Z,101405.06
2018-07-25T12:39:24.641Z,101399.80
2018-07-25T12:42:28.855Z,101393.61
2018-07-25T12:45:33.092Z,101396.30
2018-07-25T12:48:37.325Z,101397.30
2018-07-25T12:51:41.568Z,101391.70
2018-07-25T12:54:45.809Z,101391.08
2018-07-25T12:57:49.799Z,101383.14
2018-07-25T13:00:54.042Z,101389.87
2018-07-25T13:03:58.298Z,101382.34
2018-07-25T13:07:02.535Z,101384.64
2018-07-25T13:10:06.820Z,101376.34
2018-07-25T13:13:11.065Z,101384.70
2018-07-25T13:16:15.322Z,101376.09
2018-07-25T13:19:19.571Z,101375.39
2018-07-25T13:22:23.826Z,101364.08
2018-07-25T13:25:28.081Z,101362.33
2018-07-25T13:28:32.351Z,101358.05
2018-07-25T13:31:36.559Z,101361.84
2018-07-25T13:34:40.804Z,101355.27
2018-07-25T13:37:45.025Z,101362.33
2018-07-25T13:40:49.250Z,101356.61
2018-07-25T13:43:53.465Z,101358.77
2018-07-25T13:46:57.691Z,101357.45
2018-07-25T13:50:01.932Z,101356.31
2018-07-25T13:53:06.313Z,101363.61
2018-07-25T13:56:10.561Z,101362.50
2018-07-25T13:59:14.544Z,101358.25
2018-07-25T14:02:18.792Z,101357.79
2018-07-25T14:05:23.026Z,101360.45
2018-07-25T14:08:27.234Z,101357.86
2018-07-25T14:11:31.540Z,101360.02
2018-07-25T14:14:35.692Z,101363.70
2018-07-25T14:17:39.926Z,101352.02
2018-07-25T14:20:44.558Z,101361.89
2018-07-25T14:23:48.886Z,101363.09
2018-07-25T14:26:53.091Z,101374.02
2018-07-25T14:29:57.342Z,101381.98
2018-07-25T14:33:01.560Z,101375.92
2018-07-25T14:36:06.166Z,101386.73
2018-07-25T14:39:11.398Z,101381.00
2018-07-25T14:42:15.645Z,101374.16
2018-07-25T14:45:19.845Z,101377.51
2018-07-25T14:48:24.049Z,101380.83
2018-07-25T14:51:28.320Z,101385.98
2018-07-25T14:54:32.522Z,101390.05
2018-07-25T14:57:36.749Z,101394.00
2018-07-25T15:00:40.985Z,101400.55
2018-07-25T15:03:45.241Z,101409.61
2018-07-25T15:06:49.488Z,101433.91
2018-07-25T15:09:53.701Z,101480.90
2018-07-25T15:12:59.549Z,101516.95
2018-07-25T15:16:03.761Z,101532.73
2018-07-25T15:19:08.034Z,101528.04
2018-07-25T15:22:12.264Z,101532.73
2018-07-25T15:25:16.518Z,101529.84
2018-07-25T15:28:20.768Z,101535.89
2018-07-25T15:31:25.037Z,101528.14
2018-07-25T15:34:29.293Z,101527.73
2018-07-25T15:37:33.545Z,101518.41
2018-07-25T15:40:37.805Z,101524.08
2018-07-25T15:43:42.020Z,101532.41
2018-07-25T15:46:46.274Z,101543.59
2018-07-25T15:49:50.444Z,101535.04
2018-07-25T15:52:54.734Z,101544.50
2018-07-25T15:55:58.917Z,101544.36
2018-07-25T15:59:04.149Z,101545.75
2018-07-25T16:02:09.176Z,101553.05
2018-07-25T16:05:13.401Z,101543.42
2018-07-25T16:08:17.657Z,101543.09
2018-07-25T16:11:21.905Z,101540.23
2018-07-25T16:14:26.177Z,101532.97
2018-07-25T16:17:30.404Z,101521.97
2018-07-25T16:20:34.645Z,101514.98
2018-07-25T16:23:39.012Z,101508.36
2018-07-25T16:26:43.264Z,101514.11
2018-07-25T16:29:47.492Z,101515.86
2018-07-25T16:32:51.732Z,101515.25
2018-07-25T16:35:56.082Z,101515.70
2018-07-25T16:39:00.300Z,101514.98
2018-07-25T16:42:04.534Z,101513.98
2018-07-25T16:45:08.774Z,101514.39
2018-07-25T16:48:13.029Z,101513.17
2018-07-25T16:51:17.252Z,101498.42
2018-07-25T16:54:21.529Z,101493.86
2018-07-25T16:57:25.773Z,101489.88
2018-07-25T17:00:30.022Z,101492.01
2018-07-25T17:03:34.288Z,101490.73
2018-07-25T17:06:38.556Z,101489.84
2018-07-25T17:09:42.834Z,101480.59
2018-07-25T17:12:47.074Z,101478.69
2018-07-25T17:15:51.328Z,101478.30
2018-07-25T17:18:55.613Z,101471.80
2018-07-25T17:21:59.882Z,101464.89
2018-07-25T17:25:04.187Z,101466.44
2018-07-25T17:28:08.449Z,101457.64
2018-07-25T17:31:12.717Z,101457.24
2018-07-25T17:34:16.972Z,101453.61
2018-07-25T17:37:21.238Z,101455.17
2018-07-25T17:40:25.545Z,101456.23
2018-07-25T17:43:29.837Z,101451.41
2018-07-25T17:46:34.076Z,101450.34
2018-07-25T17:49:38.341Z,101458.59
2018-07-25T17:52:42.579Z,101457.36
2018-07-25T17:55:46.841Z,101453.39
2018-07-25T17:58:51.053Z,101451.42
2018-07-25T18:01:55.347Z,101454.55
2018-07-25T18:04:59.352Z,101451.36
2018-07-25T18:08:03.607Z,101450.05
2018-07-25T18:11:07.834Z,101450.52
2018-07-25T18:14:15.260Z,101453.09
2018-07-25T18:17:19.498Z,101455.50
2018-07-25T18:20:23.766Z,101454.50
2018-07-25T18:23:28.009Z,101459.23
2018-07-25T18:26:32.236Z,101458.16
2018-07-25T18:29:36.458Z,101456.49
2018-07-25T18:32:40.700Z,101459.12
2018-07-25T18:35:44.951Z,101462.02
2018-07-25T18:38:49.141Z,101462.75
2018-07-25T18:41:53.340Z,101464.37
2018-07-25T18:44:57.553Z,101470.73
2018-07-25T18:48:01.766Z,101467.86
2018-07-25T18:51:06.189Z,101464.98
2018-07-25T18:54:10.417Z,101469.58
2018-07-25T18:57:14.621Z,101470.89
2018-07-25T19:00:18.845Z,101467.77
2018-07-25T19:03:23.063Z,101477.48
2018-07-25T19:06:27.300Z,101473.50
2018-07-25T19:09:31.510Z,101481.29
2018-07-25T19:12:35.728Z,101484.29
2018-07-25T19:15:39.959Z,101483.12
2018-07-25T19:18:44.155Z,101484.43
2018-07-25T19:21:48.377Z,101481.30
2018-07-25T19:24:52.608Z,101488.80
2018-07-25T19:27:56.801Z,101490.51
2018-07-25T19:31:01.021Z,101490.83
2018-07-25T19:34:05.204Z,101492.81
2018-07-25T19:37:09.449Z,101489.99
2018-07-25T19:40:13.673Z,101499.38
2018-07-25T19:43:17.927Z,101494.00
2018-07-25T19:46:22.134Z,101492.69
2018-07-25T19:49:26.366Z,101499.77
2018-07-25T19:52:30.556Z,101496.77
2018-07-25T19:55:34.805Z,101499.93
2018-07-25T19:58:39.021Z,101498.91
2018-07-25T20:01:43.209Z,101504.42
2018-07-25T20:04:47.465Z,101499.95
2018-07-25T20:07:51.669Z,101493.82
2018-07-25T20:10:55.865Z,101499.88
2018-07-25T20:14:05.445Z,101501.78
2018-07-25T20:17:09.647Z,101496.99
2018-07-25T20:20:13.889Z,101500.52
2018-07-25T20:23:18.101Z,101507.36
2018-07-25T20:26:22.323Z,101507.82
2018-07-25T20:29:26.533Z,101504.94
2018-07-25T20:32:30.736Z,101502.80
2018-07-25T20:35:34.940Z,101501.85
2018-07-25T20:38:39.150Z,101503.41
2018-07-25T20:41:43.357Z,101509.12
2018-07-25T20:44:47.573Z,101505.34
2018-07-25T20:47:51.809Z,101505.48
2018-07-25T20:50:56.044Z,101504.24
2018-07-25T20:54:00.273Z,101502.45
2018-07-25T20:57:04.537Z,101509.27
2018-07-25T21:00:08.820Z,101512.17
2018-07-25T21:03:13.002Z,101510.92
2018-07-25T21:06:17.226Z,101520.46
2018-07-25T21:09:21.451Z,101516.33
2018-07-25T21:12:25.788Z,101516.98
2018-07-25T21:15:30.038Z,101518.19
2018-07-25T21:18:34.229Z,101528.27
2018-07-25T21:21:38.525Z,101532.25
2018-07-25T21:24:42.667Z,101533.69
2018-07-25T21:27:46.922Z,101534.33
2018-07-25T21:30:51.117Z,101535.48
2018-07-25T21:33:55.320Z,101540.00
2018-07-25T21:36:59.530Z,101542.27
2018-07-25T21:40:03.793Z,101541.52
2018-07-25T21:43:07.993Z,101549.34
2018-07-25T21:46:12.192Z,101537.42
2018-07-25T21:49:16.386Z,101541.67
2018-07-25T21:52:20.636Z,101545.03
2018-07-25T21:55:24.848Z,101553.70
2018-07-25T21:58:29.066Z,101549.32
2018-07-25T22:01:33.260Z,101552.95
2018-07-25T22:04:37.526Z,101549.14
2018-07-25T22:07:41.769Z,101551.12
2018-07-25T22:10:45.990Z,101554.48
2018-07-25T22:13:55.713Z,101558.97
2018-07-25T22:16:59.899Z,101555.11
2018-07-25T22:20:04.169Z,101552.91
2018-07-25T22:23:08.412Z,101553.75
2018-07-25T22:26:12.824Z,101551.01
2018-07-25T22:29:17.018Z,101549.08
2018-07-25T22:32:21.233Z,101554.66
2018-07-25T22:35:25.472Z,101556.08
2018-07-25T22:38:29.686Z,101549.44
2018-07-25T22:41:33.904Z,101558.89
2018-07-25T22:44:38.132Z,101556.11
2018-07-25T22:47:42.346Z,101548.37
2018-07-25T22:50:46.602Z,101559.23
2018-07-25T22:53:50.828Z,101555.94
2018-07-25T22:56:55.053Z,101565.65
2018-07-25T22:59:59.266Z,101567.09
2018-07-25T23:03:03.485Z,101567.38
2018-07-25T23:06:07.760Z,101569.92
2018-07-25T23:09:12.644Z,101573.28
2018-07-25T23:12:16.840Z,101570.27
2018-07-25T23:15:21.168Z,101569.72
2018-07-25T23:18:25.386Z,101567.27
2018-07-25T23:21:29.608Z,101569.77
2018-07-25T23:24:33.846Z,101583.09
2018-07-25T23:27:38.049Z,101580.06
2018-07-25T23:30:42.329Z,101581.46
2018-07-25T23:33:47.376Z,101575.94
2018-07-25T23:36:51.597Z,101586.21
2018-07-25T23:39:55.837Z,101585.92
2018-07-25T23:43:00.040Z,101589.78
2018-07-25T23:46:04.265Z,101585.35
2018-07-25T23:49:08.475Z,101583.16
2018-07-25T23:52:12.710Z,101579.02
2018-07-25T23:55:16.920Z,101570.72
2018-07-25T23:58:21.137Z,101581.83
